Hanjin Gwanseum — VRNY4 — position and weather

sailwx.info

Track history (hours):
 
Tides and Currents Weather Stations Pressure Air Temp Water Temp Dewpoint Dewpoint Depression Visibility Wind Speed Wind Dir Waves Ship Positions

Hanjin Gwanseum

Last reported at 2017-Oct-02 22:55 UTC. Time now 2017-Oct-18 11:22 UTC.
Position N 33°30' E 033°34'.
Warning: this ship's position is 15 days out of date.

Length 337 m; draft 14.1 m.

Type: Ship (hazmat cat D). MMSI: 477699600.

Date/timePositionNaut miles runAvg speedWind from/ knotsBaromVisibWave heightAir tempDewpointWater temp
2017-Oct-02 22:55N 33°30' E 033°34'3412.5
2017-Oct-02 20:11N 34°01' E 033°52'512.2
2017-Oct-02 19:47N 34°06' E 033°54'312.1
2017-Oct-02 19:30N 34°09' E 033°56'1012.1
2017-Oct-02 18:38N 34°18' E 034°02'211.9
2017-Oct-02 18:28N 34°20' E 034°03'1511.4
2017-Oct-02 17:09N 34°33' E 034°11'211.2
2017-Oct-02 17:00N 34°35' E 034°11'711.1
2017-Oct-02 16:25N 34°41' E 034°15'1911.2
2017-Oct-02 14:42N 34°58' E 034°25'211.6
2017-Oct-02 14:31N 34°60' E 034°26'611.7
2017-Oct-02 14:00N 35°05' E 034°30'611.7
2017-Oct-02 13:30N 35°11' E 034°33'611.7
2017-Oct-02 13:00N 35°16' E 034°36'611.8
2017-Oct-02 12:30N 35°21' E 034°39'611.9
2017-Oct-02 12:01N 35°26' E 034°43'712.2
2017-Oct-02 11:26N 35°33' E 034°47'  
2017-Sep-29 05:10N 36°17' E 031°47'212.2
2017-Sep-29 04:58N 36°17' E 031°44'612.2
2017-Sep-29 04:29N 36°17' E 031°36'612.1
2017-Sep-29 04:00N 36°17' E 031°29'612.1
2017-Sep-29 03:31N 36°17' E 031°22'611.9
2017-Sep-29 03:00N 36°17' E 031°14'611.1
2017-Sep-29 02:30N 36°15' E 031°08'611.9
2017-Sep-29 02:00N 36°10' E 031°04'611.9
2017-Sep-29 01:30N 36°05' E 030°60'611.8
2017-Sep-29 01:01N 36°00' E 030°56'610.9
2017-Sep-29 00:30N 35°56' E 030°51'610.1
2017-Sep-28 23:56N 35°53' E 030°45'511.7
2017-Sep-28 23:30N 35°53' E 030°39'611.9
2017-Sep-28 23:00N 35°53' E 030°32'612.2
2017-Sep-28 22:29N 35°52' E 030°24'23410.9
2017-Sep-28 01:00N 37°25' E 025°55'611.6
2017-Sep-28 00:30N 37°30' E 025°53'611.8
2017-Sep-28 00:00N 37°36' E 025°51'  
Track history (hours):
 
Tides and Currents Weather Stations Pressure Air Temp Water Temp Dewpoint Dewpoint Depression Visibility Wind Speed Wind Dir Waves Ship Positions

Hanjin Gwanseum

Last reported at 2017-Oct-02 22:55 UTC. Time now 2017-Oct-18 11:22 UTC.
Position N 33°30' E 033°34'.
Warning: this ship's position is 15 days out of date.

Length 337 m; draft 14.1 m.

Type: Ship (hazmat cat D). MMSI: 477699600.

Date/timePositionNaut miles runAvg speedWind from/ knotsBaromVisibWave heightAir tempDewpointWater temp
2017-Oct-02 22:55N 33°30' E 033°34'3412.5
2017-Oct-02 20:11N 34°01' E 033°52'512.2
2017-Oct-02 19:47N 34°06' E 033°54'312.1
2017-Oct-02 19:30N 34°09' E 033°56'1012.1
2017-Oct-02 18:38N 34°18' E 034°02'211.9
2017-Oct-02 18:28N 34°20' E 034°03'1511.4
2017-Oct-02 17:09N 34°33' E 034°11'211.2
2017-Oct-02 17:00N 34°35' E 034°11'711.1
2017-Oct-02 16:25N 34°41' E 034°15'1911.2
2017-Oct-02 14:42N 34°58' E 034°25'211.6
2017-Oct-02 14:31N 34°60' E 034°26'611.7
2017-Oct-02 14:00N 35°05' E 034°30'611.7
2017-Oct-02 13:30N 35°11' E 034°33'611.7
2017-Oct-02 13:00N 35°16' E 034°36'611.8
2017-Oct-02 12:30N 35°21' E 034°39'611.9
2017-Oct-02 12:01N 35°26' E 034°43'712.2
2017-Oct-02 11:26N 35°33' E 034°47'  
2017-Sep-29 05:10N 36°17' E 031°47'212.2
2017-Sep-29 04:58N 36°17' E 031°44'612.2
2017-Sep-29 04:29N 36°17' E 031°36'612.1
2017-Sep-29 04:00N 36°17' E 031°29'612.1
2017-Sep-29 03:31N 36°17' E 031°22'611.9
2017-Sep-29 03:00N 36°17' E 031°14'611.1
2017-Sep-29 02:30N 36°15' E 031°08'611.9
2017-Sep-29 02:00N 36°10' E 031°04'611.9
2017-Sep-29 01:30N 36°05' E 030°60'611.8
2017-Sep-29 01:01N 36°00' E 030°56'610.9
2017-Sep-29 00:30N 35°56' E 030°51'610.1
2017-Sep-28 23:56N 35°53' E 030°45'511.7
2017-Sep-28 23:30N 35°53' E 030°39'611.9
2017-Sep-28 23:00N 35°53' E 030°32'612.2
2017-Sep-28 22:29N 35°52' E 030°24'23410.9
2017-Sep-28 01:00N 37°25' E 025°55'611.6
2017-Sep-28 00:30N 37°30' E 025°53'611.8
2017-Sep-28 00:00N 37°36' E 025°51'  

Dump ship's entire track history